sensor_id;sensor_type;location;lat;lon;timestamp;temperature;humidity
38514;DHT22;24282;48.400;10.808;2023-02-15T00:01:31;0.90;87.60
38514;DHT22;24282;48.400;10.808;2023-02-15T00:03:57;0.90;87.60
38514;DHT22;24282;48.400;10.808;2023-02-15T00:06:23;0.80;87.60
38514;DHT22;24282;48.400;10.808;2023-02-15T00:08:49;0.80;87.70
38514;DHT22;24282;48.400;10.808;2023-02-15T00:11:17;0.80;87.70
38514;DHT22;24282;48.400;10.808;2023-02-15T00:14:05;0.80;87.90
38514;DHT22;24282;48.400;10.808;2023-02-15T00:16:31;0.90;87.80
38514;DHT22;24282;48.400;10.808;2023-02-15T00:18:56;0.90;87.80
38514;DHT22;24282;48.400;10.808;2023-02-15T00:21:22;0.90;87.60
38514;DHT22;24282;48.400;10.808;2023-02-15T00:23:48;0.90;87.60
38514;DHT22;24282;48.400;10.808;2023-02-15T00:26:13;0.80;87.50
38514;DHT22;24282;48.400;10.808;2023-02-15T00:28:42;0.80;87.60
38514;DHT22;24282;48.400;10.808;2023-02-15T00:31:10;0.80;87.70
38514;DHT22;24282;48.400;10.808;2023-02-15T00:33:36;0.80;87.70
38514;DHT22;24282;48.400;10.808;2023-02-15T00:36:03;0.80;87.70
38514;DHT22;24282;48.400;10.808;2023-02-15T00:38:30;0.80;87.60
38514;DHT22;24282;48.400;10.808;2023-02-15T00:40:59;0.80;87.50
38514;DHT22;24282;48.400;10.808;2023-02-15T00:43:26;0.80;87.40
38514;DHT22;24282;48.400;10.808;2023-02-15T00:45:52;0.80;87.30
38514;DHT22;24282;48.400;10.808;2023-02-15T00:48:18;0.80;87.20
38514;DHT22;24282;48.400;10.808;2023-02-15T00:50:58;0.80;87.10
38514;DHT22;24282;48.400;10.808;2023-02-15T00:53:26;0.80;87.00
38514;DHT22;24282;48.400;10.808;2023-02-15T00:55:52;0.80;86.90
38514;DHT22;24282;48.400;10.808;2023-02-15T00:58:18;0.80;86.80
38514;DHT22;24282;48.400;10.808;2023-02-15T01:00:46;0.80;86.60
38514;DHT22;24282;48.400;10.808;2023-02-15T01:03:14;0.80;86.60
38514;DHT22;24282;48.400;10.808;2023-02-15T01:05:41;0.80;86.60
38514;DHT22;24282;48.400;10.808;2023-02-15T01:08:07;0.80;86.40
38514;DHT22;24282;48.400;10.808;2023-02-15T01:10:33;0.80;86.30
38514;DHT22;24282;48.400;10.808;2023-02-15T01:12:59;0.70;86.30
38514;DHT22;24282;48.400;10.808;2023-02-15T01:15:26;0.70;86.40
38514;DHT22;24282;48.400;10.808;2023-02-15T01:17:51;0.70;86.40
38514;DHT22;24282;48.400;10.808;2023-02-15T01:20:25;0.70;86.40
38514;DHT22;24282;48.400;10.808;2023-02-15T01:22:51;0.70;86.30
38514;DHT22;24282;48.400;10.808;2023-02-15T01:25:18;0.70;86.20
38514;DHT22;24282;48.400;10.808;2023-02-15T01:27:44;0.70;86.30
38514;DHT22;24282;48.400;10.808;2023-02-15T01:30:13;0.60;86.30
38514;DHT22;24282;48.400;10.808;2023-02-15T01:32:38;0.60;86.20
38514;DHT22;24282;48.400;10.808;2023-02-15T01:35:05;0.60;86.20
38514;DHT22;24282;48.400;10.808;2023-02-15T01:37:31;0.60;86.30
38514;DHT22;24282;48.400;10.808;2023-02-15T01:39:57;0.60;86.10
38514;DHT22;24282;48.400;10.808;2023-02-15T01:42:26;0.50;86.30
38514;DHT22;24282;48.400;10.808;2023-02-15T01:47:45;0.50;86.60
38514;DHT22;24282;48.400;10.808;2023-02-15T01:50:37;0.50;86.60
38514;DHT22;24282;48.400;10.808;2023-02-15T01:55:59;0.50;86.60
38514;DHT22;24282;48.400;10.808;2023-02-15T01:58:27;0.50;86.50
38514;DHT22;24282;48.400;10.808;2023-02-15T02:00:56;0.50;86.50
38514;DHT22;24282;48.400;10.808;2023-02-15T02:06:13;0.50;86.50
38514;DHT22;24282;48.400;10.808;2023-02-15T02:08:40;0.50;86.40
38514;DHT22;24282;48.400;10.808;2023-02-15T02:11:13;0.50;86.10
38514;DHT22;24282;48.400;10.808;2023-02-15T02:13:40;0.40;86.20
38514;DHT22;24282;48.400;10.808;2023-02-15T02:16:23;0.40;86.50
38514;DHT22;24282;48.400;10.808;2023-02-15T02:19:17;0.40;86.50
38514;DHT22;24282;48.400;10.808;2023-02-15T02:27:46;0.40;86.60
38514;DHT22;24282;48.400;10.808;2023-02-15T02:30:37;0.30;86.50
38514;DHT22;24282;48.400;10.808;2023-02-15T02:50:06;0.20;86.50
38514;DHT22;24282;48.400;10.808;2023-02-15T02:55:17;0.20;86.50
38514;DHT22;24282;48.400;10.808;2023-02-15T02:58:20;0.20;86.50
38514;DHT22;24282;48.400;10.808;2023-02-15T03:01:29;0.30;86.40
38514;DHT22;24282;48.400;10.808;2023-02-15T03:06:22;0.30;86.30
38514;DHT22;24282;48.400;10.808;2023-02-15T03:09:06;0.30;86.30
38514;DHT22;24282;48.400;10.808;2023-02-15T03:11:44;0.30;86.10
38514;DHT22;24282;48.400;10.808;2023-02-15T03:14:10;0.30;86.20
38514;DHT22;24282;48.400;10.808;2023-02-15T03:16:40;0.20;86.20
38514;DHT22;24282;48.400;10.808;2023-02-15T03:19:11;0.30;86.30
38514;DHT22;24282;48.400;10.808;2023-02-15T03:21:47;0.20;86.20
38514;DHT22;24282;48.400;10.808;2023-02-15T03:24:21;0.20;86.10
38514;DHT22;24282;48.400;10.808;2023-02-15T03:26:50;0.30;86.00
38514;DHT22;24282;48.400;10.808;2023-02-15T03:29:22;0.20;86.10
38514;DHT22;24282;48.400;10.808;2023-02-15T03:31:53;0.30;86.10
38514;DHT22;24282;48.400;10.808;2023-02-15T03:34:20;0.20;86.00
38514;DHT22;24282;48.400;10.808;2023-02-15T03:39:54;0.20;85.60
38514;DHT22;24282;48.400;10.808;2023-02-15T03:42:43;0.20;85.70
38514;DHT22;24282;48.400;10.808;2023-02-15T03:45:13;0.10;85.60
38514;DHT22;24282;48.400;10.808;2023-02-15T03:47:46;0.00;85.60
38514;DHT22;24282;48.400;10.808;2023-02-15T03:53:02;0.00;86.10
38514;DHT22;24282;48.400;10.808;2023-02-15T03:55:29;0.00;86.30
38514;DHT22;24282;48.400;10.808;2023-02-15T03:57:55;0.00;86.20
38514;DHT22;24282;48.400;10.808;2023-02-15T04:00:52;0.00;86.20
38514;DHT22;24282;48.400;10.808;2023-02-15T04:06:18;0.00;86.10
38514;DHT22;24282;48.400;10.808;2023-02-15T04:08:44;0.00;86.10
38514;DHT22;24282;48.400;10.808;2023-02-15T04:11:28;0.00;86.10
38514;DHT22;24282;48.400;10.808;2023-02-15T04:13:54;0.00;86.10
38514;DHT22;24282;48.400;10.808;2023-02-15T04:16:22;0.00;85.90
38514;DHT22;24282;48.400;10.808;2023-02-15T04:18:49;0.00;86.10
38514;DHT22;24282;48.400;10.808;2023-02-15T04:21:33;0.00;86.20
38514;DHT22;24282;48.400;10.808;2023-02-15T04:24:18;0.00;86.10
38514;DHT22;24282;48.400;10.808;2023-02-15T04:27:03;0.00;85.70
38514;DHT22;24282;48.400;10.808;2023-02-15T04:29:30;0.00;85.90
38514;DHT22;24282;48.400;10.808;2023-02-15T04:31:58;0.00;86.10
38514;DHT22;24282;48.400;10.808;2023-02-15T04:34:24;0.00;86.10
38514;DHT22;24282;48.400;10.808;2023-02-15T04:36:50;0.00;86.20
38514;DHT22;24282;48.400;10.808;2023-02-15T04:39:17;0.00;86.10
38514;DHT22;24282;48.400;10.808;2023-02-15T04:41:44;0.00;86.20
38514;DHT22;24282;48.400;10.808;2023-02-15T04:44:10;0.00;86.10
38514;DHT22;24282;48.400;10.808;2023-02-15T04:46:36;0.00;86.10
38514;DHT22;24282;48.400;10.808;2023-02-15T04:49:02;0.00;86.20
38514;DHT22;24282;48.400;10.808;2023-02-15T04:51:28;0.00;86.10
38514;DHT22;24282;48.400;10.808;2023-02-15T04:53:54;0.00;86.20
38514;DHT22;24282;48.400;10.808;2023-02-15T04:56:20;0.00;86.10
38514;DHT22;24282;48.400;10.808;2023-02-15T04:58:46;0.00;85.90
38514;DHT22;24282;48.400;10.808;2023-02-15T05:01:12;0.00;85.70
38514;DHT22;24282;48.400;10.808;2023-02-15T05:03:38;0.00;85.80
38514;DHT22;24282;48.400;10.808;2023-02-15T05:06:04;0.00;85.80
38514;DHT22;24282;48.400;10.808;2023-02-15T05:08:30;0.00;85.80
38514;DHT22;24282;48.400;10.808;2023-02-15T05:10:56;0.00;85.60
38514;DHT22;24282;48.400;10.808;2023-02-15T05:13:22;0.00;85.40
38514;DHT22;24282;48.400;10.808;2023-02-15T05:15:50;0.00;85.20
38514;DHT22;24282;48.400;10.808;2023-02-15T05:18:17;0.00;84.70
38514;DHT22;24282;48.400;10.808;2023-02-15T05:20:43;-3276.70;85.10
38514;DHT22;24282;48.400;10.808;2023-02-15T05:23:09;-3276.70;85.60
38514;DHT22;24282;48.400;10.808;2023-02-15T05:25:35;-3276.70;85.70
38514;DHT22;24282;48.400;10.808;2023-02-15T05:28:20;-3276.70;85.90
38514;DHT22;24282;48.400;10.808;2023-02-15T05:30:48;-3276.70;86.00
38514;DHT22;24282;48.400;10.808;2023-02-15T05:33:14;-3276.70;85.90
38514;DHT22;24282;48.400;10.808;2023-02-15T05:35:40;-3276.70;85.80
38514;DHT22;24282;48.400;10.808;2023-02-15T05:38:06;-3276.70;85.90
38514;DHT22;24282;48.400;10.808;2023-02-15T05:40:32;-3276.70;85.90
38514;DHT22;24282;48.400;10.808;2023-02-15T05:42:58;-3276.70;85.90
38514;DHT22;24282;48.400;10.808;2023-02-15T05:45:23;0.00;85.80
38514;DHT22;24282;48.400;10.808;2023-02-15T05:47:49;-3276.70;85.50
38514;DHT22;24282;48.400;10.808;2023-02-15T05:50:15;0.00;85.80
38514;DHT22;24282;48.400;10.808;2023-02-15T05:52:41;-3276.70;85.90
38514;DHT22;24282;48.400;10.808;2023-02-15T05:55:07;-3276.70;85.70
38514;DHT22;24282;48.400;10.808;2023-02-15T05:57:35;-3276.70;85.70
38514;DHT22;24282;48.400;10.808;2023-02-15T06:00:02;-3276.70;85.60
38514;DHT22;24282;48.400;10.808;2023-02-15T06:02:37;-3276.70;85.50
38514;DHT22;24282;48.400;10.808;2023-02-15T06:05:05;-3276.70;85.50
38514;DHT22;24282;48.400;10.808;2023-02-15T06:07:31;-3276.70;85.30
38514;DHT22;24282;48.400;10.808;2023-02-15T06:09:57;-3276.70;85.10
38514;DHT22;24282;48.400;10.808;2023-02-15T06:12:23;-3276.60;85.20
38514;DHT22;24282;48.400;10.808;2023-02-15T06:14:48;-3276.60;85.50
38514;DHT22;24282;48.400;10.808;2023-02-15T06:17:14;-3276.70;85.60
38514;DHT22;24282;48.400;10.808;2023-02-15T06:19:40;-3276.70;85.60
38514;DHT22;24282;48.400;10.808;2023-02-15T06:22:05;-3276.60;85.70
38514;DHT22;24282;48.400;10.808;2023-02-15T06:24:32;-3276.70;85.80
38514;DHT22;24282;48.400;10.808;2023-02-15T06:26:57;-3276.70;85.80
38514;DHT22;24282;48.400;10.808;2023-02-15T06:29:23;-3276.70;85.80
38514;DHT22;24282;48.400;10.808;2023-02-15T06:31:49;-3276.70;85.70
38514;DHT22;24282;48.400;10.808;2023-02-15T06:34:15;-3276.70;85.60
38514;DHT22;24282;48.400;10.808;2023-02-15T06:36:41;-3276.70;85.70
38514;DHT22;24282;48.400;10.808;2023-02-15T06:39:07;-3276.70;85.80
38514;DHT22;24282;48.400;10.808;2023-02-15T06:41:33;-3276.70;85.80
38514;DHT22;24282;48.400;10.808;2023-02-15T06:43:58;-3276.70;85.80
38514;DHT22;24282;48.400;10.808;2023-02-15T06:46:24;-3276.70;85.70
38514;DHT22;24282;48.400;10.808;2023-02-15T06:48:50;-3276.70;85.70
38514;DHT22;24282;48.400;10.808;2023-02-15T06:51:16;-3276.70;85.70
38514;DHT22;24282;48.400;10.808;2023-02-15T06:53:41;-3276.70;85.70
38514;DHT22;24282;48.400;10.808;2023-02-15T06:56:09;-3276.70;85.60
38514;DHT22;24282;48.400;10.808;2023-02-15T06:58:39;-3276.70;85.60
38514;DHT22;24282;48.400;10.808;2023-02-15T07:01:06;-3276.70;85.50
38514;DHT22;24282;48.400;10.808;2023-02-15T07:03:32;0.00;85.50
38514;DHT22;24282;48.400;10.808;2023-02-15T07:06:00;-3276.70;85.60
38514;DHT22;24282;48.400;10.808;2023-02-15T07:08:27;0.00;85.40
38514;DHT22;24282;48.400;10.808;2023-02-15T07:10:53;-3276.70;85.50
38514;DHT22;24282;48.400;10.808;2023-02-15T07:13:20;0.00;85.60
38514;DHT22;24282;48.400;10.808;2023-02-15T07:15:47;0.00;85.50
38514;DHT22;24282;48.400;10.808;2023-02-15T07:18:13;0.00;85.50
38514;DHT22;24282;48.400;10.808;2023-02-15T07:20:39;0.00;85.50
38514;DHT22;24282;48.400;10.808;2023-02-15T07:23:07;0.00;85.50
38514;DHT22;24282;48.400;10.808;2023-02-15T07:25:34;0.00;85.50
38514;DHT22;24282;48.400;10.808;2023-02-15T07:28:02;0.00;85.60
38514;DHT22;24282;48.400;10.808;2023-02-15T07:30:28;0.00;85.30
38514;DHT22;24282;48.400;10.808;2023-02-15T07:32:58;0.00;85.40
38514;DHT22;24282;48.400;10.808;2023-02-15T07:35:50;0.00;85.50
38514;DHT22;24282;48.400;10.808;2023-02-15T07:38:17;0.00;85.50
38514;DHT22;24282;48.400;10.808;2023-02-15T07:40:43;0.00;85.50
38514;DHT22;24282;48.400;10.808;2023-02-15T07:43:10;0.00;85.40
38514;DHT22;24282;48.400;10.808;2023-02-15T07:45:36;0.00;85.40
38514;DHT22;24282;48.400;10.808;2023-02-15T07:48:03;0.00;85.50
38514;DHT22;24282;48.400;10.808;2023-02-15T07:50:29;0.00;85.50
38514;DHT22;24282;48.400;10.808;2023-02-15T07:52:54;0.00;85.60
38514;DHT22;24282;48.400;10.808;2023-02-15T07:55:20;0.00;85.50
38514;DHT22;24282;48.400;10.808;2023-02-15T07:57:47;0.00;85.40
38514;DHT22;24282;48.400;10.808;2023-02-15T08:00:15;0.00;85.50
38514;DHT22;24282;48.400;10.808;2023-02-15T08:02:46;0.00;85.60
38514;DHT22;24282;48.400;10.808;2023-02-15T08:05:12;0.00;85.70
38514;DHT22;24282;48.400;10.808;2023-02-15T08:07:38;0.00;85.70
38514;DHT22;24282;48.400;10.808;2023-02-15T08:10:04;0.00;85.60
38514;DHT22;24282;48.400;10.808;2023-02-15T08:12:30;0.10;85.60
38514;DHT22;24282;48.400;10.808;2023-02-15T08:14:56;0.00;85.60
38514;DHT22;24282;48.400;10.808;2023-02-15T08:17:21;0.10;85.60
38514;DHT22;24282;48.400;10.808;2023-02-15T08:19:48;0.10;85.40
38514;DHT22;24282;48.400;10.808;2023-02-15T08:22:14;0.10;85.30
38514;DHT22;24282;48.400;10.808;2023-02-15T08:24:40;0.10;85.10
38514;DHT22;24282;48.400;10.808;2023-02-15T08:27:15;0.10;85.20
38514;DHT22;24282;48.400;10.808;2023-02-15T08:29:41;0.00;85.50
38514;DHT22;24282;48.400;10.808;2023-02-15T08:32:09;0.10;85.60
38514;DHT22;24282;48.400;10.808;2023-02-15T08:34:38;0.10;85.80
38514;DHT22;24282;48.400;10.808;2023-02-15T08:37:05;0.10;85.80
38514;DHT22;24282;48.400;10.808;2023-02-15T08:39:31;0.00;84.90
38514;DHT22;24282;48.400;10.808;2023-02-15T08:41:57;0.00;85.20
38514;DHT22;24282;48.400;10.808;2023-02-15T08:44:23;0.00;85.60
38514;DHT22;24282;48.400;10.808;2023-02-15T08:46:49;0.00;85.90
38514;DHT22;24282;48.400;10.808;2023-02-15T08:49:18;0.10;85.80
38514;DHT22;24282;48.400;10.808;2023-02-15T08:51:48;0.10;85.60
38514;DHT22;24282;48.400;10.808;2023-02-15T08:54:19;0.10;85.80
38514;DHT22;24282;48.400;10.808;2023-02-15T08:56:46;0.10;85.80
38514;DHT22;24282;48.400;10.808;2023-02-15T08:59:16;0.20;85.80
38514;DHT22;24282;48.400;10.808;2023-02-15T09:01:42;0.20;85.60
38514;DHT22;24282;48.400;10.808;2023-02-15T09:04:09;0.20;85.70
38514;DHT22;24282;48.400;10.808;2023-02-15T09:06:36;0.30;85.80
38514;DHT22;24282;48.400;10.808;2023-02-15T09:09:03;0.30;85.80
38514;DHT22;24282;48.400;10.808;2023-02-15T09:11:37;0.40;85.80
38514;DHT22;24282;48.400;10.808;2023-02-15T09:14:06;0.50;85.70
38514;DHT22;24282;48.400;10.808;2023-02-15T09:16:35;0.50;85.80
38514;DHT22;24282;48.400;10.808;2023-02-15T09:19:01;0.50;85.60
38514;DHT22;24282;48.400;10.808;2023-02-15T09:21:28;0.60;85.30
38514;DHT22;24282;48.400;10.808;2023-02-15T09:23:58;0.50;84.90
38514;DHT22;24282;48.400;10.808;2023-02-15T09:26:26;0.50;85.10
38514;DHT22;24282;48.400;10.808;2023-02-15T09:28:55;0.60;85.40
38514;DHT22;24282;48.400;10.808;2023-02-15T09:31:24;0.60;85.50
38514;DHT22;24282;48.400;10.808;2023-02-15T09:33:50;0.60;85.30
38514;DHT22;24282;48.400;10.808;2023-02-15T09:36:23;0.70;85.30
38514;DHT22;24282;48.400;10.808;2023-02-15T09:38:54;0.70;85.40
38514;DHT22;24282;48.400;10.808;2023-02-15T10:17:15;1.30;82.60
38514;DHT22;24282;48.400;10.808;2023-02-15T10:28:09;1.40;83.60
38514;DHT22;24282;48.400;10.808;2023-02-15T10:30:50;1.40;83.70
38514;DHT22;24282;48.400;10.808;2023-02-15T10:33:39;1.50;83.80
38514;DHT22;24282;48.400;10.808;2023-02-15T10:36:36;1.60;83.90
38514;DHT22;24282;48.400;10.808;2023-02-15T10:42:16;1.80;83.30
38514;DHT22;24282;48.400;10.808;2023-02-15T10:50:20;2.10;83.50
38514;DHT22;24282;48.400;10.808;2023-02-15T11:06:05;2.50;83.20
38514;DHT22;24282;48.400;10.808;2023-02-15T11:08:56;2.50;83.00
38514;DHT22;24282;48.400;10.808;2023-02-15T11:11:29;2.50;83.10
38514;DHT22;24282;48.400;10.808;2023-02-15T11:14:00;2.40;83.30
38514;DHT22;24282;48.400;10.808;2023-02-15T11:16:53;2.50;83.70
38514;DHT22;24282;48.400;10.808;2023-02-15T11:19:28;2.50;84.10
38514;DHT22;24282;48.400;10.808;2023-02-15T11:22:04;2.50;84.00
38514;DHT22;24282;48.400;10.808;2023-02-15T11:24:32;2.60;83.70
38514;DHT22;24282;48.400;10.808;2023-02-15T11:27:04;2.80;83.00
38514;DHT22;24282;48.400;10.808;2023-02-15T11:29:38;2.80;83.10
38514;DHT22;24282;48.400;10.808;2023-02-15T11:34:55;3.00;83.40
38514;DHT22;24282;48.400;10.808;2023-02-15T11:37:27;3.10;83.10
38514;DHT22;24282;48.400;10.808;2023-02-15T11:39:54;3.20;83.10
38514;DHT22;24282;48.400;10.808;2023-02-15T11:42:22;3.40;83.60
38514;DHT22;24282;48.400;10.808;2023-02-15T11:47:26;3.60;83.30
38514;DHT22;24282;48.400;10.808;2023-02-15T11:49:51;3.70;82.90
38514;DHT22;24282;48.400;10.808;2023-02-15T11:52:18;3.90;82.60
38514;DHT22;24282;48.400;10.808;2023-02-15T11:54:49;4.00;82.30
38514;DHT22;24282;48.400;10.808;2023-02-15T11:57:39;4.20;81.80
38514;DHT22;24282;48.400;10.808;2023-02-15T12:00:32;4.30;81.00
38514;DHT22;24282;48.400;10.808;2023-02-15T12:03:04;4.50;80.30
38514;DHT22;24282;48.400;10.808;2023-02-15T12:05:35;4.60;80.20
38514;DHT22;24282;48.400;10.808;2023-02-15T12:08:16;4.80;80.20
38514;DHT22;24282;48.400;10.808;2023-02-15T12:11:00;5.00;79.60
38514;DHT22;24282;48.400;10.808;2023-02-15T12:13:28;5.20;79.20
38514;DHT22;24282;48.400;10.808;2023-02-15T12:15:56;5.40;78.60
38514;DHT22;24282;48.400;10.808;2023-02-15T12:18:40;5.60;77.90
38514;DHT22;24282;48.400;10.808;2023-02-15T12:21:09;5.90;76.00
38514;DHT22;24282;48.400;10.808;2023-02-15T12:23:51;5.90;76.10
38514;DHT22;24282;48.400;10.808;2023-02-15T12:26:32;6.00;75.90
38514;DHT22;24282;48.400;10.808;2023-02-15T12:29:07;6.20;76.00
38514;DHT22;24282;48.400;10.808;2023-02-15T12:31:40;6.40;75.60
38514;DHT22;24282;48.400;10.808;2023-02-15T12:34:15;6.50;75.30
38514;DHT22;24282;48.400;10.808;2023-02-15T12:36:49;6.70;75.00
38514;DHT22;24282;48.400;10.808;2023-02-15T12:39:19;6.80;74.70
38514;DHT22;24282;48.400;10.808;2023-02-15T12:44:33;7.00;74.20
38514;DHT22;24282;48.400;10.808;2023-02-15T12:47:06;7.10;74.20
38514;DHT22;24282;48.400;10.808;2023-02-15T12:49:44;7.20;74.10
38514;DHT22;24282;48.400;10.808;2023-02-15T12:52:36;7.30;72.80
38514;DHT22;24282;48.400;10.808;2023-02-15T12:55:21;7.30;72.80
38514;DHT22;24282;48.400;10.808;2023-02-15T12:57:47;7.40;72.90
38514;DHT22;24282;48.400;10.808;2023-02-15T13:02:46;7.50;73.30
38514;DHT22;24282;48.400;10.808;2023-02-15T13:05:25;7.50;73.20
38514;DHT22;24282;48.400;10.808;2023-02-15T13:08:22;7.50;72.40
38514;DHT22;24282;48.400;10.808;2023-02-15T13:10:59;7.40;72.60
38514;DHT22;24282;48.400;10.808;2023-02-15T13:13:27;7.40;72.80
38514;DHT22;24282;48.400;10.808;2023-02-15T13:16:15;7.40;73.20
38514;DHT22;24282;48.400;10.808;2023-02-15T13:18:45;7.40;73.50
38514;DHT22;24282;48.400;10.808;2023-02-15T13:21:15;7.40;73.80
38514;DHT22;24282;48.400;10.808;2023-02-15T13:23:48;7.40;73.20
38514;DHT22;24282;48.400;10.808;2023-02-15T13:26:19;7.30;73.20
38514;DHT22;24282;48.400;10.808;2023-02-15T13:28:48;7.30;73.40
38514;DHT22;24282;48.400;10.808;2023-02-15T13:31:18;7.30;73.40
38514;DHT22;24282;48.400;10.808;2023-02-15T13:34:15;7.30;73.70
38514;DHT22;24282;48.400;10.808;2023-02-15T13:37:15;7.30;74.10
38514;DHT22;24282;48.400;10.808;2023-02-15T13:42:32;7.30;74.30
38514;DHT22;24282;48.400;10.808;2023-02-15T13:47:53;7.30;74.60
38514;DHT22;24282;48.400;10.808;2023-02-15T13:58:21;7.30;75.30
38514;DHT22;24282;48.400;10.808;2023-02-15T14:04:30;7.20;75.80
38514;DHT22;24282;48.400;10.808;2023-02-15T14:09:16;7.20;76.30
38514;DHT22;24282;48.400;10.808;2023-02-15T14:12:46;7.10;76.50
38514;DHT22;24282;48.400;10.808;2023-02-15T14:15:13;7.10;76.70
38514;DHT22;24282;48.400;10.808;2023-02-15T14:19:04;7.10;76.80
38514;DHT22;24282;48.400;10.808;2023-02-15T14:23:43;7.00;77.20
38514;DHT22;24282;48.400;10.808;2023-02-15T14:26:29;6.90;77.40
38514;DHT22;24282;48.400;10.808;2023-02-15T14:31:46;6.90;77.80
38514;DHT22;24282;48.400;10.808;2023-02-15T14:34:25;6.80;77.80
38514;DHT22;24282;48.400;10.808;2023-02-15T14:36:53;6.80;78.00
38514;DHT22;24282;48.400;10.808;2023-02-15T14:39:44;6.80;78.00
38514;DHT22;24282;48.400;10.808;2023-02-15T14:45:52;6.70;78.40
38514;DHT22;24282;48.400;10.808;2023-02-15T14:48:24;6.60;78.30
38514;DHT22;24282;48.400;10.808;2023-02-15T14:50:51;6.60;78.50
38514;DHT22;24282;48.400;10.808;2023-02-15T14:53:33;6.50;78.50
38514;DHT22;24282;48.400;10.808;2023-02-15T15:01:26;6.50;79.10
38514;DHT22;24282;48.400;10.808;2023-02-15T15:03:55;6.40;79.30
38514;DHT22;24282;48.400;10.808;2023-02-15T15:06:30;6.40;79.60
38514;DHT22;24282;48.400;10.808;2023-02-15T15:09:14;6.40;79.50
38514;DHT22;24282;48.400;10.808;2023-02-15T15:11:49;6.30;79.50
38514;DHT22;24282;48.400;10.808;2023-02-15T15:16:57;6.20;79.60
38514;DHT22;24282;48.400;10.808;2023-02-15T15:22:21;6.10;79.70
38514;DHT22;24282;48.400;10.808;2023-02-15T15:24:49;6.10;79.70
38514;DHT22;24282;48.400;10.808;2023-02-15T15:30:46;6.00;79.70
38514;DHT22;24282;48.400;10.808;2023-02-15T15:35:27;6.00;79.80
38514;DHT22;24282;48.400;10.808;2023-02-15T15:49:08;5.70;80.10
38514;DHT22;24282;48.400;10.808;2023-02-15T15:51:40;5.60;80.30
38514;DHT22;24282;48.400;10.808;2023-02-15T15:56:44;5.50;80.50
38514;DHT22;24282;48.400;10.808;2023-02-15T15:59:25;5.40;80.50
38514;DHT22;24282;48.400;10.808;2023-02-15T16:01:52;5.30;80.70
38514;DHT22;24282;48.400;10.808;2023-02-15T16:04:29;5.20;81.00
38514;DHT22;24282;48.400;10.808;2023-02-15T16:06:57;5.20;81.00
38514;DHT22;24282;48.400;10.808;2023-02-15T16:09:26;5.10;81.20
38514;DHT22;24282;48.400;10.808;2023-02-15T16:11:53;5.10;81.30
38514;DHT22;24282;48.400;10.808;2023-02-15T16:14:32;5.00;81.40
38514;DHT22;24282;48.400;10.808;2023-02-15T16:17:02;5.00;81.50
38514;DHT22;24282;48.400;10.808;2023-02-15T16:19:40;4.90;81.60
38514;DHT22;24282;48.400;10.808;2023-02-15T16:22:20;4.90;81.70
38514;DHT22;24282;48.400;10.808;2023-02-15T16:25:12;4.80;81.70
38514;DHT22;24282;48.400;10.808;2023-02-15T16:27:41;4.70;81.70
38514;DHT22;24282;48.400;10.808;2023-02-15T16:30:27;4.70;81.80
38514;DHT22;24282;48.400;10.808;2023-02-15T16:33:14;4.60;81.50
38514;DHT22;24282;48.400;10.808;2023-02-15T16:38:23;4.40;81.70
38514;DHT22;24282;48.400;10.808;2023-02-15T16:40:55;4.40;81.80
38514;DHT22;24282;48.400;10.808;2023-02-15T16:43:28;4.30;81.90
38514;DHT22;24282;48.400;10.808;2023-02-15T16:46:03;4.20;81.90
38514;DHT22;24282;48.400;10.808;2023-02-15T16:48:31;4.20;82.00
38514;DHT22;24282;48.400;10.808;2023-02-15T16:50:57;4.10;82.20
38514;DHT22;24282;48.400;10.808;2023-02-15T16:53:26;4.00;82.10
38514;DHT22;24282;48.400;10.808;2023-02-15T16:55:58;4.00;82.00
38514;DHT22;24282;48.400;10.808;2023-02-15T16:58:45;3.90;81.90
38514;DHT22;24282;48.400;10.808;2023-02-15T17:01:16;3.80;81.70
38514;DHT22;24282;48.400;10.808;2023-02-15T17:03:48;3.80;81.70
38514;DHT22;24282;48.400;10.808;2023-02-15T17:06:25;3.70;81.90
38514;DHT22;24282;48.400;10.808;2023-02-15T17:08:52;3.70;82.10
38514;DHT22;24282;48.400;10.808;2023-02-15T17:11:20;3.60;82.10
38514;DHT22;24282;48.400;10.808;2023-02-15T17:16:34;3.50;82.30
38514;DHT22;24282;48.400;10.808;2023-02-15T17:19:02;3.40;82.30
38514;DHT22;24282;48.400;10.808;2023-02-15T17:21:39;3.40;82.40
38514;DHT22;24282;48.400;10.808;2023-02-15T17:24:06;3.30;82.50
38514;DHT22;24282;48.400;10.808;2023-02-15T17:26:39;3.30;82.60
38514;DHT22;24282;48.400;10.808;2023-02-15T17:29:31;3.20;82.60
38514;DHT22;24282;48.400;10.808;2023-02-15T17:31:59;3.20;82.70
38514;DHT22;24282;48.400;10.808;2023-02-15T17:35:05;3.10;82.70
38514;DHT22;24282;48.400;10.808;2023-02-15T17:40:25;3.00;82.80
38514;DHT22;24282;48.400;10.808;2023-02-15T17:42:52;3.00;82.80
38514;DHT22;24282;48.400;10.808;2023-02-15T17:45:18;3.00;82.80
38514;DHT22;24282;48.400;10.808;2023-02-15T17:47:46;3.00;82.90
38514;DHT22;24282;48.400;10.808;2023-02-15T17:50:30;2.90;83.10
38514;DHT22;24282;48.400;10.808;2023-02-15T17:52:57;2.80;83.00
38514;DHT22;24282;48.400;10.808;2023-02-15T17:55:24;2.80;82.90
38514;DHT22;24282;48.400;10.808;2023-02-15T17:58:12;2.80;82.70
38514;DHT22;24282;48.400;10.808;2023-02-15T18:00:47;2.60;82.70
38514;DHT22;24282;48.400;10.808;2023-02-15T18:03:46;2.60;82.70
38514;DHT22;24282;48.400;10.808;2023-02-15T18:06:32;2.60;82.50
38514;DHT22;24282;48.400;10.808;2023-02-15T18:09:19;2.50;82.50
38514;DHT22;24282;48.400;10.808;2023-02-15T18:12:25;2.50;82.70
38514;DHT22;24282;48.400;10.808;2023-02-15T18:14:53;2.40;82.70
38514;DHT22;24282;48.400;10.808;2023-02-15T18:17:24;2.30;82.60
38514;DHT22;24282;48.400;10.808;2023-02-15T18:19:51;2.30;82.50
38514;DHT22;24282;48.400;10.808;2023-02-15T18:22:19;2.20;82.30
38514;DHT22;24282;48.400;10.808;2023-02-15T18:24:46;2.20;82.30
38514;DHT22;24282;48.400;10.808;2023-02-15T18:27:13;2.10;82.30
38514;DHT22;24282;48.400;10.808;2023-02-15T18:29:39;2.00;82.30
38514;DHT22;24282;48.400;10.808;2023-02-15T18:32:18;2.00;82.30
38514;DHT22;24282;48.400;10.808;2023-02-15T18:34:47;2.00;82.10
38514;DHT22;24282;48.400;10.808;2023-02-15T18:37:16;1.90;82.20
38514;DHT22;24282;48.400;10.808;2023-02-15T18:39:46;1.80;82.30
38514;DHT22;24282;48.400;10.808;2023-02-15T18:42:29;1.80;82.30
38514;DHT22;24282;48.400;10.808;2023-02-15T18:48:06;1.80;82.60
38514;DHT22;24282;48.400;10.808;2023-02-15T18:50:37;1.70;82.70
38514;DHT22;24282;48.400;10.808;2023-02-15T18:53:04;1.70;82.90
38514;DHT22;24282;48.400;10.808;2023-02-15T18:55:31;1.70;82.80
38514;DHT22;24282;48.400;10.808;2023-02-15T18:57:58;1.50;83.10
38514;DHT22;24282;48.400;10.808;2023-02-15T19:00:28;1.50;83.30
38514;DHT22;24282;48.400;10.808;2023-02-15T19:02:54;1.50;83.70
38514;DHT22;24282;48.400;10.808;2023-02-15T19:05:21;1.50;83.80